Time;durP1;ratioP1;P1;durP2;ratioP2;P2;SDS_P1;SDS_P2;PMS_P1;PMS_P2;Temp;Humidity;BMP_temperature;BMP_pressure;BME280_temperature;BME280_humidity;BME280_pressure;Samples;Min_cycle;Max_cycle;Signal;HPM_P1;HPM_P2
2021/04/11 00:00:27;;;;;;;16.63;14.17;;;;;;;18.20;50.66;99171.84;2070976;28;20042;-70
2021/04/11 00:01:27;;;;;;;15.10;12.63;;;;;;;18.20;50.65;99177.31;2070398;28;20090;-71
2021/04/11 00:02:28;;;;;;;16.70;13.73;;;;;;;18.20;50.55;99172.72;2069912;28;20034;-70
2021/04/11 00:03:28;;;;;;;16.33;12.77;;;;;;;18.19;50.55;99170.16;2070888;28;20061;-70
2021/04/11 00:04:29;;;;;;;16.30;13.07;;;;;;;18.20;50.58;99169.13;2070039;28;20025;-70
2021/04/11 00:05:32;;;;;;;16.47;13.17;;;;;;;18.19;50.57;99170.16;2069872;28;20899;-71
2021/04/11 00:06:33;;;;;;;16.65;13.27;;;;;;;18.19;50.58;99171.00;2070512;28;20413;-70
2021/04/11 00:07:33;;;;;;;16.67;13.10;;;;;;;18.20;50.51;99166.38;2068651;28;20030;-70
2021/04/11 00:08:34;;;;;;;16.70;13.23;;;;;;;18.20;50.47;99166.38;2071177;28;20052;-70
2021/04/11 00:09:34;;;;;;;15.97;12.70;;;;;;;18.21;50.54;99165.38;2070633;28;20022;-70
2021/04/11 00:10:37;;;;;;;15.70;13.43;;;;;;;18.19;50.61;99164.69;2069796;28;20034;-70
2021/04/11 00:11:38;;;;;;;16.85;12.75;;;;;;;18.19;50.43;99161.97;2069861;28;20032;-71
2021/04/11 00:12:38;;;;;;;16.60;12.73;;;;;;;18.20;50.37;99160.94;2068389;28;20591;-70
2021/04/11 00:13:39;;;;;;;16.20;13.03;;;;;;;18.21;50.45;99154.47;2071039;28;20070;-70
2021/04/11 00:14:39;;;;;;;15.80;12.27;;;;;;;18.20;50.51;99164.53;2068074;28;20036;-70
2021/04/11 00:15:40;;;;;;;16.80;12.63;;;;;;;18.19;50.47;99157.38;2068439;28;20096;-71
2021/04/11 00:16:40;;;;;;;17.03;13.60;;;;;;;18.19;50.50;99153.78;2069270;28;20453;-70
2021/04/11 00:17:41;;;;;;;16.13;13.00;;;;;;;18.19;50.71;99159.25;2070917;28;20539;-71
2021/04/11 00:18:42;;;;;;;16.98;13.15;;;;;;;18.21;50.40;99154.47;2063963;28;20022;-70
2021/04/11 00:19:42;;;;;;;17.13;13.97;;;;;;;18.18;50.42;99160.28;2064828;28;20086;-70
2021/04/11 00:20:43;;;;;;;17.83;14.07;;;;;;;18.18;50.69;99154.81;2063033;28;20034;-70
2021/04/11 00:21:43;;;;;;;16.23;13.03;;;;;;;18.19;50.50;99153.78;2067155;28;20106;-70
2021/04/11 00:22:45;;;;;;;16.73;13.00;;;;;;;18.18;50.58;99152.94;2066643;28;20036;-70
2021/04/11 00:23:45;;;;;;;14.73;12.07;;;;;;;18.17;50.34;99144.91;2068960;28;20025;-70
2021/04/11 00:24:46;;;;;;;15.43;13.03;;;;;;;18.18;50.53;99152.09;2069596;28;20536;-70
2021/04/11 00:25:48;;;;;;;17.60;14.83;;;;;;;18.17;50.66;99150.38;2070969;28;20036;-70
2021/04/11 00:26:48;;;;;;;;;;;;;;;18.12;50.69;99141.84;2070253;28;20045;-70
2021/04/11 00:27:49;;;;;;;18.50;13.32;;;;;;;18.13;50.65;99149.88;2071071;28;19963;-70
2021/04/11 00:28:49;;;;;;;16.60;13.43;;;;;;;18.14;50.67;99140.66;2067325;28;20056;-70
2021/04/11 00:29:50;;;;;;;18.10;14.00;;;;;;;18.15;50.66;99141.50;2067595;28;20080;-70
2021/04/11 00:30:50;;;;;;;16.70;13.27;;;;;;;18.15;50.46;99141.50;2070275;28;20021;-70
2021/04/11 00:31:50;;;;;;;14.83;12.57;;;;;;;18.15;50.62;99139.66;2068407;28;20051;-70
2021/04/11 00:32:54;;;;;;;18.77;14.17;;;;;;;18.15;50.41;99138.75;2070880;28;20041;-71
2021/04/11 00:33:55;;;;;;;16.95;14.35;;;;;;;18.15;50.49;99130.59;2069217;28;20052;-70
2021/04/11 00:34:55;;;;;;;15.80;13.47;;;;;;;18.16;50.53;99126.84;2070074;28;20113;-70
2021/04/11 00:36:02;;;;;;;17.07;14.03;;;;;;;18.14;50.40;99128.88;2069288;28;20036;-70
2021/04/11 00:37:02;;;;;;;17.50;13.45;;;;;;;18.14;50.43;99132.47;2067882;28;20030;-70
2021/04/11 00:38:03;;;;;;;16.67;13.33;;;;;;;18.15;50.62;99125.13;2070936;28;20025;-70
2021/04/11 00:39:03;;;;;;;17.90;14.57;;;;;;;18.15;50.45;99125.13;2070254;28;20476;-70
2021/04/11 00:40:19;;;;;;;16.63;13.13;;;;;;;18.16;50.56;99121.41;2069690;28;20026;-70
2021/04/11 00:41:28;;;;;;;16.42;13.52;;;;;;;18.15;50.44;99122.41;2063016;28;20273;-71
2021/04/11 00:42:36;;;;;;;17.27;14.02;;;;;;;18.14;50.47;99117.97;2068110;28;20045;-70
2021/04/11 00:43:38;;;;;;;16.95;13.55;;;;;;;18.14;50.61;99117.97;2063770;28;20166;-70
2021/04/11 00:44:39;;;;;;;19.42;13.88;;;;;;;18.16;50.66;99121.41;2069703;28;20188;-70
2021/04/11 00:45:54;;;;;;;15.60;13.60;;;;;;;18.16;50.41;99115.94;2068527;28;20041;-70
2021/04/11 00:46:57;;;;;;;16.13;12.70;;;;;;;18.14;50.52;99113.38;2069119;28;20484;-71
2021/04/11 00:47:58;;;;;;;19.33;15.23;;;;;;;18.15;50.39;99106.91;2070067;28;20384;-70
2021/04/11 00:49:00;;;;;;;17.17;13.20;;;;;;;18.15;50.49;99104.19;2068611;28;20034;-70
2021/04/11 00:50:04;;;;;;;17.35;14.18;;;;;;;18.16;50.50;99115.94;2070746;28;20057;-70
2021/04/11 00:51:16;;;;;;;15.05;12.63;;;;;;;18.14;50.49;99112.53;2067969;28;20029;-71
2021/04/11 00:52:18;;;;;;;16.92;13.68;;;;;;;18.14;50.58;99107.06;2067342;28;20158;-70
2021/04/11 00:53:18;;;;;;;18.63;14.07;;;;;;;18.14;50.70;99121.56;2070019;28;20069;-70
2021/04/11 00:54:19;;;;;;;17.03;13.90;;;;;;;18.15;50.45;99119.69;2067901;28;20030;-71
2021/04/11 00:55:22;;;;;;;17.40;14.17;;;;;;;18.12;50.69;99117.28;2069161;28;20069;-70
2021/04/11 00:56:23;;;;;;;17.48;13.45;;;;;;;18.14;50.48;99128.88;2069438;28;20269;-70
2021/04/11 00:57:23;;;;;;;17.97;14.70;;;;;;;18.15;50.58;99114.22;2070091;28;20105;-70
2021/04/11 00:58:26;;;;;;;16.53;13.17;;;;;;;18.15;50.67;99122.41;2070758;28;20025;-70
2021/04/11 00:59:27;;;;;;;16.38;13.52;;;;;;;18.14;50.60;99115.25;2067605;28;20030;-70
2021/04/11 01:00:33;;;;;;;15.82;12.63;;;;;;;18.15;50.67;99122.41;2060631;28;20618;-70
2021/04/11 01:01:36;;;;;;;17.90;13.10;;;;;;;18.15;50.54;99117.81;2069325;28;20034;-70
2021/04/11 01:02:39;;;;;;;18.05;13.57;;;;;;;18.15;50.45;99119.69;2069887;28;20037;-70
2021/04/11 01:03:40;;;;;;;15.45;12.68;;;;;;;18.16;50.53;99124.97;2070006;28;20100;-70
2021/04/11 01:04:40;;;;;;;16.45;12.88;;;;;;;18.18;50.51;99119.38;2069926;28;20029;-70
2021/04/11 01:05:41;;;;;;;15.63;13.43;;;;;;;18.16;50.50;99115.94;2067287;28;20031;-70
2021/04/11 01:06:48;;;;;;;16.33;13.10;;;;;;;18.15;50.44;99115.09;2070488;28;20026;-70
2021/04/11 01:07:50;;;;;;;15.80;13.32;;;;;;;18.16;50.61;99115.94;2068690;28;20095;-70
2021/04/11 01:08:52;;;;;;;16.60;12.88;;;;;;;18.16;50.60;99115.94;2069075;28;20160;-70
2021/04/11 01:09:54;;;;;;;16.77;13.15;;;;;;;18.15;50.68;99111.50;2069611;28;20404;-70
2021/04/11 01:11:03;;;;;;;15.13;12.45;;;;;;;18.16;50.58;99113.22;2066919;28;20430;-70
2021/04/11 01:12:07;;;;;;;14.25;12.10;;;;;;;18.17;50.54;99101.28;2069079;28;20065;-71
2021/04/11 01:13:09;;;;;;;16.15;12.38;;;;;;;18.19;50.48;99102.81;2068620;28;20080;-70
2021/04/11 01:14:11;;;;;;;15.45;13.02;;;;;;;18.20;50.55;99106.38;2066469;28;20695;-70
2021/04/11 01:15:23;;;;;;;14.60;12.13;;;;;;;18.17;50.44;99106.72;2070501;28;20244;-70
2021/04/11 01:16:25;;;;;;;14.63;11.98;;;;;;;18.19;50.38;99107.41;2066354;28;20560;-70
2021/04/11 01:17:26;;;;;;;;;;;;;;;18.13;50.67;99105.38;2067887;28;20033;-70
2021/04/11 01:18:26;;;;;;;17.15;13.57;;;;;;;18.14;50.61;99105.19;2069766;28;19913;-70
2021/04/11 01:19:32;;;;;;;17.20;13.83;;;;;;;18.15;50.56;99108.75;2070195;28;20029;-70
2021/04/11 01:20:34;;;;;;;15.23;12.15;;;;;;;18.15;50.59;99103.31;2068558;28;20046;-70
2021/04/11 01:21:45;;;;;;;15.15;12.70;;;;;;;18.14;50.60;99107.06;2064975;28;20021;-70
2021/04/11 01:23:07;;;;;;;14.50;12.63;;;;;;;18.14;50.76;99104.34;2065667;28;20040;-70
2021/04/11 01:24:30;;;;;;;17.83;13.77;;;;;;;18.13;50.63;99106.22;2069462;28;20026;-70
2021/04/11 01:25:33;;;;;;;17.58;14.10;;;;;;;18.12;50.54;99103.66;2069925;28;20323;-71
2021/04/11 01:26:34;;;;;;;18.30;14.38;;;;;;;18.13;50.60;99099.91;2068773;28;20651;-70
2021/04/11 01:27:36;;;;;;;17.37;14.03;;;;;;;18.14;50.69;99098.88;2070323;28;20116;-70
2021/04/11 01:28:41;;;;;;;17.58;14.23;;;;;;;18.16;50.72;99096.84;2068109;28;20030;-70
2021/04/11 01:29:42;;;;;;;18.17;14.27;;;;;;;18.16;50.56;99099.56;2070136;28;20095;-70
2021/04/11 01:30:43;;;;;;;14.70;12.90;;;;;;;18.15;50.63;99098.72;2063027;28;20085;-70
2021/04/11 01:31:44;;;;;;;16.67;14.05;;;;;;;18.16;50.67;99094.97;2069077;28;20121;-71
2021/04/11 01:32:45;;;;;;;17.90;14.50;;;;;;;18.16;50.60;99092.25;2065831;28;20145;-70
2021/04/11 01:33:51;;;;;;;16.47;13.03;;;;;;;18.16;50.64;99091.41;2063335;28;20421;-70
2021/04/11 01:34:56;;;;;;;17.58;13.70;;;;;;;18.14;50.43;99090.72;2057027;28;20023;-70
2021/04/11 01:35:58;;;;;;;16.13;12.70;;;;;;;18.15;50.62;99086.94;2064809;28;20110;-70
2021/04/11 01:37:00;;;;;;;16.50;13.18;;;;;;;18.17;50.46;99084.91;2069047;28;20120;-70
2021/04/11 01:38:02;;;;;;;16.17;13.18;;;;;;;18.15;50.60;99084.22;2071992;28;20036;-70
2021/04/11 01:39:08;;;;;;;16.75;13.07;;;;;;;18.18;50.49;99087.47;2067099;28;20140;-70
2021/04/11 01:40:14;;;;;;;14.95;12.90;;;;;;;18.16;50.59;99072.31;2068034;28;20080;-70
2021/04/11 01:41:34;;;;;;;16.95;13.32;;;;;;;18.15;50.67;99084.22;2072008;28;20038;-71
2021/04/11 01:42:35;;;;;;;17.35;13.02;;;;;;;18.15;50.53;99081.50;2070406;28;20033;-70
2021/04/11 01:43:37;;;;;;;16.03;12.60;;;;;;;18.14;50.53;99075.19;2068354;28;20042;-70
2021/04/11 01:44:39;;;;;;;15.55;13.05;;;;;;;18.15;50.50;99085.09;2071725;28;20593;-70
2021/04/11 01:45:43;;;;;;;17.73;12.82;;;;;;;18.15;50.55;99081.50;2071594;28;20029;-70
2021/04/11 01:46:44;;;;;;;16.00;13.75;;;;;;;18.14;50.61;99075.19;2071156;28;20088;-71
2021/04/11 01:47:44;;;;;;;14.68;12.40;;;;;;;18.15;50.58;99081.50;2071283;28;20030;-70
2021/04/11 01:48:46;;;;;;;15.37;12.70;;;;;;;18.16;50.52;99066.84;2071451;28;20029;-70
2021/04/11 01:49:47;;;;;;;15.50;12.40;;;;;;;18.14;50.59;99077.91;2066491;28;20106;-70
2021/04/11 01:50:48;;;;;;;15.33;12.60;;;;;;;18.15;50.51;99082.38;2071492;28;20114;-71
2021/04/11 01:51:55;;;;;;;16.90;12.85;;;;;;;18.14;50.69;99085.25;2071781;28;20061;-70
2021/04/11 01:52:58;;;;;;;18.30;13.88;;;;;;;18.14;50.46;99085.25;2071086;28;20045;-70
2021/04/11 01:53:59;;;;;;;18.27;13.20;;;;;;;18.14;50.56;99086.09;2071993;28;20564;-70
2021/04/11 01:55:00;;;;;;;16.25;13.00;;;;;;;18.15;50.60;99086.94;2068868;28;20093;-71
2021/04/11 01:56:01;;;;;;;16.63;13.60;;;;;;;18.14;50.45;99085.25;2069092;28;20516;-70
2021/04/11 01:57:17;;;;;;;15.80;13.00;;;;;;;18.12;50.66;99082.69;2072275;28;20364;-70
2021/04/11 01:58:18;;;;;;;16.73;13.10;;;;;;;18.14;50.55;99079.78;2071524;28;20021;-70
2021/04/11 01:59:28;;;;;;;17.92;13.07;;;;;;;18.13;50.60;99075.38;2071872;28;20034;-70
2021/04/11 02:00:38;;;;;;;15.73;13.65;;;;;;;18.12;50.46;99081.84;2066304;28;20054;-71
2021/04/11 02:01:40;;;;;;;16.02;13.95;;;;;;;18.11;50.72;99085.59;2071319;28;20037;-70
2021/04/11 02:02:40;;;;;;;17.83;13.73;;;;;;;18.12;50.50;99076.38;2071667;28;20519;-70
2021/04/11 02:03:41;;;;;;;17.07;13.70;;;;;;;18.12;50.40;99076.38;2066637;28;20160;-70
2021/04/11 02:04:44;;;;;;;18.27;13.93;;;;;;;18.13;50.57;99078.09;2069644;28;20138;-70
2021/04/11 02:05:47;;;;;;;16.75;13.85;;;;;;;18.13;50.60;99075.38;2072030;28;20026;-70
2021/04/11 02:06:51;;;;;;;17.27;14.00;;;;;;;18.13;50.46;99067.19;2071503;28;20041;-70
2021/04/11 02:07:54;;;;;;;16.10;13.38;;;;;;;18.14;50.37;99068.88;2071846;28;20135;-70
2021/04/11 02:09:06;;;;;;;15.32;13.35;;;;;;;18.12;50.44;99062.75;2076752;28;20025;-70
2021/04/11 02:10:08;;;;;;;16.70;13.25;;;;;;;18.11;50.57;99059.16;2070356;28;20038;-70
2021/04/11 02:11:10;;;;;;;17.27;13.90;;;;;;;18.11;50.55;99052.88;2068100;28;20105;-70
2021/04/11 02:12:12;;;;;;;16.42;13.32;;;;;;;18.11;50.49;99061.06;2070066;28;20531;-70
2021/04/11 02:13:14;;;;;;;17.63;13.85;;;;;;;18.10;50.63;99062.06;2071348;28;20049;-70
2021/04/11 02:14:16;;;;;;;16.88;14.57;;;;;;;18.11;50.59;99059.16;2064751;28;20026;-70
2021/04/11 02:15:26;;;;;;;16.50;13.27;;;;;;;18.10;50.35;99062.06;2069622;28;20029;-71
2021/04/11 02:16:30;;;;;;;15.15;12.45;;;;;;;18.12;50.47;99076.38;2071713;28;20030;-70
2021/04/11 02:17:31;;;;;;;15.13;12.93;;;;;;;18.11;50.76;99058.31;2067228;28;20067;-70
2021/04/11 02:18:33;;;;;;;15.80;12.83;;;;;;;18.11;50.56;99055.59;2068568;28;20505;-70
2021/04/11 02:19:33;;;;;;;;;;;;;;;18.07;50.66;99065.13;2068013;28;20030;-70
2021/04/11 02:20:34;;;;;;;17.42;13.80;;;;;;;18.09;50.67;99060.34;2071903;28;19913;-70
2021/04/11 02:21:35;;;;;;;16.50;12.93;;;;;;;18.09;50.69;99065.81;2071152;28;20374;-71
2021/04/11 02:22:37;;;;;;;15.38;12.65;;;;;;;18.09;50.71;99054.91;2071350;28;20038;-70
2021/04/11 02:25:19;;;;;;;15.77;12.02;;;;;;;18.03;50.86;99061.00;2070421;28;19921;-71
2021/04/11 02:26:20;;;;;;;16.73;13.10;;;;;;;18.03;50.69;99061.00;2067735;28;20034;-70
2021/04/11 02:27:22;;;;;;;18.20;14.20;;;;;;;18.05;50.61;99067.16;2071201;28;20014;-71
2021/04/11 02:28:28;;;;;;;17.50;14.13;;;;;;;18.06;50.53;99060.69;2070825;28;20485;-70
2021/04/11 02:29:53;;;;;;;15.77;12.27;;;;;;;18.04;50.83;99060.00;2065547;28;20045;-70
2021/04/11 02:31:16;;;;;;;15.65;12.88;;;;;;;18.04;50.79;99057.28;2062221;28;20019;-71
2021/04/11 02:32:17;;;;;;;16.23;12.43;;;;;;;18.05;50.77;99056.25;2070918;28;20034;-70
2021/04/11 02:33:19;;;;;;;15.18;12.48;;;;;;;18.06;50.76;99053.38;2070503;28;20028;-70
2021/04/11 02:34:21;;;;;;;14.05;11.82;;;;;;;18.04;50.82;99063.59;2070846;28;20574;-70
2021/04/11 02:35:25;;;;;;;15.07;12.18;;;;;;;18.06;50.60;99060.69;2071228;28;20076;-70
2021/04/11 02:36:28;;;;;;;15.45;12.93;;;;;;;18.07;50.68;99067.84;2071657;28;20091;-70
2021/04/11 02:37:32;;;;;;;16.50;13.05;;;;;;;18.07;50.71;99068.69;2071510;28;20117;-70
2021/04/11 02:38:33;;;;;;;16.05;12.80;;;;;;;18.07;50.71;99068.69;2068487;28;20022;-70
2021/04/11 02:39:38;;;;;;;17.83;13.83;;;;;;;18.08;50.62;99070.41;2068933;28;20143;-70
2021/04/11 02:40:45;;;;;;;15.63;13.32;;;;;;;18.08;50.61;99061.38;2068276;28;20473;-70
2021/04/11 02:41:48;;;;;;;17.25;14.02;;;;;;;18.09;50.44;99061.22;2069929;28;20113;-70
2021/04/11 02:42:48;;;;;;;17.13;12.93;;;;;;;18.09;50.67;99065.81;2069757;28;20018;-70
2021/04/11 02:43:49;;;;;;;15.23;12.50;;;;;;;18.10;50.56;99062.91;2066340;28;20025;-70
2021/04/11 02:44:51;;;;;;;16.33;13.17;;;;;;;18.10;50.50;99062.06;2071620;28;20618;-70
2021/04/11 02:45:52;;;;;;;14.60;12.18;;;;;;;18.10;50.66;99054.72;2071319;28;20106;-70
2021/04/11 02:46:56;;;;;;;16.07;11.97;;;;;;;18.11;50.64;99058.31;2071340;28;20030;-70
2021/04/11 02:47:57;;;;;;;17.52;13.38;;;;;;;18.11;50.65;99058.31;2070611;28;20504;-70
2021/04/11 02:48:57;;;;;;;15.33;13.07;;;;;;;18.12;50.64;99051.84;2071317;28;20401;-70
2021/04/11 02:49:59;;;;;;;14.43;11.73;;;;;;;18.12;50.42;99060.00;2066404;28;20022;-70
2021/04/11 02:51:01;;;;;;;14.90;12.25;;;;;;;18.11;50.58;99053.72;2069095;28;20034;-70
2021/04/11 02:52:07;;;;;;;16.08;12.65;;;;;;;18.11;50.51;99063.78;2071113;28;20034;-70
2021/04/11 02:53:13;;;;;;;15.38;12.23;;;;;;;18.11;50.63;99059.16;2069526;28;20026;-71
2021/04/11 02:54:16;;;;;;;15.38;11.90;;;;;;;18.13;50.61;99062.59;2071593;28;20520;-70
2021/04/11 02:55:18;;;;;;;14.63;11.30;;;;;;;18.14;50.50;99064.28;2069621;28;20065;-71
2021/04/11 02:56:18;;;;;;;14.02;12.30;;;;;;;18.17;50.44;99068.53;2068194;28;20026;-70
2021/04/11 02:57:22;;;;;;;16.97;13.43;;;;;;;18.18;50.53;99068.38;2065139;28;20928;-70
2021/04/11 02:58:22;;;;;;;14.40;11.82;;;;;;;18.17;50.52;99068.53;2071280;28;20615;-70
2021/04/11 02:59:23;;;;;;;15.03;12.00;;;;;;;18.16;50.41;99073.16;2070764;28;20034;-70
2021/04/11 03:00:28;;;;;;;16.40;13.17;;;;;;;18.15;50.59;99068.72;2071154;28;20026;-70
2021/04/11 03:01:38;;;;;;;16.73;13.60;;;;;;;18.13;50.72;99072.66;2064324;28;20026;-70
2021/04/11 03:02:38;;;;;;;15.45;12.90;;;;;;;18.14;50.68;99075.19;2069588;28;20405;-70
2021/04/11 03:03:39;;;;;;;17.40;12.73;;;;;;;18.14;50.62;99074.34;2063582;28;20062;-70
2021/04/11 03:04:40;;;;;;;16.73;13.00;;;;;;;18.11;50.58;99075.53;2068722;28;20798;-70
2021/04/11 03:05:41;;;;;;;16.20;13.13;;;;;;;18.13;50.62;99069.91;2071257;28;20269;-70
2021/04/11 03:06:46;;;;;;;16.47;13.40;;;;;;;18.11;50.72;99063.78;2071189;28;20038;-70
2021/04/11 03:08:01;;;;;;;16.02;12.80;;;;;;;18.12;50.74;99062.75;2070109;28;20018;-70
2021/04/11 03:09:11;;;;;;;16.10;13.30;;;;;;;18.11;50.58;99055.59;2071305;28;20037;-70
2021/04/11 03:10:25;;;;;;;17.33;13.23;;;;;;;18.09;50.83;99057.63;2071573;28;20022;-70
2021/04/11 03:11:34;;;;;;;15.90;12.88;;;;;;;18.10;50.65;99059.31;2065880;28;20054;-71
2021/04/11 03:12:35;;;;;;;14.02;11.95;;;;;;;18.11;50.75;99050.13;2068115;28;20036;-70
2021/04/11 03:13:36;;;;;;;16.50;12.90;;;;;;;18.10;50.56;99045.69;2069944;28;20021;-70
2021/04/11 03:14:41;;;;;;;15.32;12.75;;;;;;;18.10;50.71;99045.69;2068697;28;20064;-70
2021/04/11 03:15:43;;;;;;;16.00;12.95;;;;;;;18.10;50.75;99049.25;2065866;28;20716;-70
2021/04/11 03:16:43;;;;;;;;;;;;;;;18.06;50.67;99049.78;2071257;28;20093;-71
2021/04/11 03:17:49;;;;;;;15.88;12.68;;;;;;;18.05;50.65;99050.81;2069465;28;20001;-70
2021/04/11 03:18:53;;;;;;;16.02;12.68;;;;;;;18.09;50.73;99054.91;2070584;28;20025;-70
2021/04/11 03:19:57;;;;;;;14.32;12.05;;;;;;;18.11;50.72;99052.88;2067575;28;20409;-70
2021/04/11 03:20:59;;;;;;;15.02;12.13;;;;;;;18.12;50.67;99060.00;2066591;28;20088;-71
2021/04/11 03:21:59;;;;;;;14.50;12.15;;;;;;;18.10;50.71;99062.06;2063835;28;20038;-70
2021/04/11 03:23:02;;;;;;;16.00;12.17;;;;;;;18.10;50.68;99067.50;2067081;28;20381;-70
2021/04/11 03:24:04;;;;;;;13.65;11.77;;;;;;;18.10;50.83;99056.59;2063973;28;20030;-70
2021/04/11 03:25:05;;;;;;;;;;;;;;;18.06;50.88;99055.25;2065685;28;20030;-70
2021/04/11 03:26:15;;;;;;;14.10;11.50;;;;;;;18.08;50.83;99059.50;2066380;28;20012;-70
2021/04/11 03:27:46;;;;;;;13.55;11.40;;;;;;;18.07;50.77;99056.94;2063441;28;20142;-70
2021/04/11 03:28:52;;;;;;;15.15;12.52;;;;;;;18.08;50.85;99056.78;2066476;28;20041;-70
2021/04/11 03:30:06;;;;;;;15.23;11.68;;;;;;;18.07;50.99;99059.66;2068939;28;20030;-70
2021/04/11 03:31:16;;;;;;;14.02;11.32;;;;;;;18.07;50.71;99051.50;2069861;28;20400;-70
2021/04/11 03:32:24;;;;;;;14.98;12.43;;;;;;;18.07;50.73;99046.88;2063793;28;20030;-70
2021/04/11 03:33:24;;;;;;;13.73;11.15;;;;;;;18.08;50.85;99039.53;2068715;28;20045;-70
2021/04/11 03:34:30;;;;;;;14.80;11.67;;;;;;;18.07;50.64;99040.59;2070293;28;20025;-70
2021/04/11 03:35:34;;;;;;;12.73;10.52;;;;;;;18.09;50.66;99038.53;2064163;28;20389;-70
2021/04/11 03:36:35;;;;;;;15.05;11.52;;;;;;;18.09;50.68;99027.63;2069149;28;20025;-70
2021/04/11 03:37:37;;;;;;;13.73;11.60;;;;;;;18.07;50.67;99025.06;2070970;28;20588;-70
2021/04/11 03:38:39;;;;;;;15.05;12.27;;;;;;;18.08;50.74;99031.38;2063224;28;20068;-70
2021/04/11 03:39:40;;;;;;;15.02;11.70;;;;;;;18.08;50.51;99032.25;2064272;28;20023;-70
2021/04/11 03:40:43;;;;;;;13.40;11.77;;;;;;;18.09;50.63;99027.63;2063082;28;20026;-71
2021/04/11 03:41:46;;;;;;;16.25;12.88;;;;;;;18.07;50.75;99035.97;2070453;28;20550;-70
2021/04/11 03:43:13;;;;;;;14.77;11.93;;;;;;;18.06;50.74;99039.72;2069953;28;20341;-70
2021/04/11 03:44:24;;;;;;;14.48;11.80;;;;;;;18.06;50.75;99036.16;2069612;28;20173;-71
2021/04/11 03:45:32;;;;;;;13.50;11.85;;;;;;;18.06;50.77;99042.47;2070450;28;20025;-70
2021/04/11 03:46:45;;;;;;;13.80;11.63;;;;;;;18.05;50.70;99048.91;2070709;28;20156;-70
2021/04/11 03:48:09;;;;;;;13.18;10.55;;;;;;;18.04;50.80;99047.22;2069679;28;20025;-70
2021/04/11 03:49:18;;;;;;;14.00;11.82;;;;;;;18.05;50.63;99053.53;2070215;28;20022;-70
2021/04/11 03:50:41;;;;;;;13.75;10.88;;;;;;;18.03;50.82;99058.28;2063360;28;20390;-70
2021/04/11 03:51:44;;;;;;;14.32;11.73;;;;;;;18.05;50.79;99053.53;2069986;28;20697;-70
2021/04/11 03:52:47;;;;;;;15.00;12.43;;;;;;;18.06;50.72;99063.44;2069841;28;20021;-70
2021/04/11 03:53:50;;;;;;;15.02;11.82;;;;;;;18.05;50.62;99053.53;2070108;28;20053;-70
2021/04/11 03:54:51;;;;;;;13.82;11.68;;;;;;;18.08;50.67;99058.63;2069942;28;20028;-70
2021/04/11 03:55:57;;;;;;;14.27;11.23;;;;;;;18.06;50.60;99060.69;2070233;28;20084;-70
2021/04/11 03:57:07;;;;;;;14.35;11.45;;;;;;;18.06;50.76;99066.16;2063315;28;20093;-70
2021/04/11 03:58:15;;;;;;;13.50;11.38;;;;;;;18.06;50.72;99061.56;2068654;28;20700;-70
2021/04/11 03:59:22;;;;;;;13.48;11.55;;;;;;;18.05;50.80;99062.56;2067362;28;20030;-70
2021/04/11 04:00:37;;;;;;;13.10;10.70;;;;;;;18.05;50.82;99061.72;2063089;28;20088;-70
2021/04/11 04:01:49;;;;;;;14.85;12.27;;;;;;;18.04;50.80;99070.91;2068498;28;20034;-71
2021/04/11 04:02:51;;;;;;;;;;;;;;;17.98;50.81;99073.31;2070570;28;20033;-70
2021/04/11 04:03:58;;;;;;;14.68;11.77;;;;;;;18.02;50.89;99070.22;2070801;28;19933;-70
2021/04/11 04:05:02;;;;;;;14.60;12.20;;;;;;;18.03;50.86;99074.66;2069339;28;20500;-70
2021/04/11 04:06:10;;;;;;;14.80;11.20;;;;;;;18.04;50.82;99066.31;2070019;28;20121;-70
2021/04/11 04:07:20;;;;;;;14.13;11.68;;;;;;;18.02;50.72;99070.22;2069279;28;20037;-70
2021/04/11 04:08:21;;;;;;;15.93;12.55;;;;;;;18.03;50.82;99072.81;2070243;28;20648;-70
2021/04/11 04:09:21;;;;;;;15.27;11.20;;;;;;;18.04;50.69;99073.66;2070302;28;20235;-71
2021/04/11 04:10:26;;;;;;;13.90;11.60;;;;;;;18.04;50.73;99073.66;2069779;28;20037;-70
2021/04/11 04:11:48;;;;;;;14.55;11.55;;;;;;;18.02;50.75;99076.53;2069005;28;20034;-70
2021/04/11 04:13:10;;;;;;;14.75;11.73;;;;;;;18.00;50.59;99073.97;2063797;28;20076;-71
2021/04/11 04:14:10;;;;;;;14.27;11.32;;;;;;;18.03;50.57;99082.84;2065668;28;20758;-70
2021/04/11 04:15:20;;;;;;;13.27;11.27;;;;;;;18.02;50.88;99071.06;2069069;28;20092;-69
2021/04/11 04:16:41;;;;;;;13.32;10.52;;;;;;;18.03;50.85;99078.25;2062477;28;20452;-70
2021/04/11 04:18:02;;;;;;;13.50;10.65;;;;;;;18.04;50.85;99079.94;2062793;28;20406;-70
2021/04/11 04:19:24;;;;;;;14.57;10.90;;;;;;;18.04;50.68;99079.09;2062832;28;20109;-70
2021/04/11 04:20:56;;;;;;;14.27;10.93;;;;;;;18.04;50.81;99079.94;2070826;28;20096;-70
2021/04/11 04:22:18;;;;;;;14.70;11.88;;;;;;;18.05;50.84;99083.53;2071063;28;20037;-70
2021/04/11 04:23:44;;;;;;;14.23;11.43;;;;;;;18.05;50.78;99080.78;2063001;28;20038;-71
2021/04/11 04:25:00;;;;;;;14.43;11.55;;;;;;;18.05;50.85;99076.19;2069227;28;20060;-70
2021/04/11 04:26:07;;;;;;;12.70;10.73;;;;;;;18.06;50.77;99071.63;2068780;28;20029;-71
2021/04/11 04:27:20;;;;;;;12.82;10.43;;;;;;;18.06;50.85;99077.06;2070350;28;20097;-70
2021/04/11 04:28:49;;;;;;;16.08;11.48;;;;;;;18.07;50.66;99074.16;2069497;28;20136;-70
2021/04/11 04:30:02;;;;;;;15.48;11.95;;;;;;;18.06;50.72;99067.00;2068677;28;20537;-70
2021/04/11 04:31:04;;;;;;;;;;;;;;;18.01;50.87;99074.84;2071411;28;20034;-70
2021/04/11 04:32:23;;;;;;;12.65;10.57;;;;;;;18.01;50.85;99074.84;2067152;28;19917;-70
2021/04/11 04:33:55;;;;;;;12.52;10.70;;;;;;;18.02;50.93;99075.69;2065872;28;20036;-70
2021/04/11 04:35:17;;;;;;;14.38;11.45;;;;;;;18.00;50.77;99068.50;2068640;28;20026;-71
2021/04/11 04:36:28;;;;;;;13.55;10.38;;;;;;;18.03;50.88;99066.47;2064922;28;20022;-70
2021/04/11 04:37:53;;;;;;;14.73;11.75;;;;;;;18.02;50.72;99072.97;2068434;28;20041;-70
2021/04/11 04:39:22;;;;;;;15.00;11.68;;;;;;;18.00;50.91;99062.22;2069706;28;20018;-70
2021/04/11 04:40:43;;;;;;;13.90;11.48;;;;;;;18.00;50.87;99068.50;2069232;28;20108;-70
2021/04/11 04:42:10;;;;;;;13.75;11.93;;;;;;;18.03;50.72;99066.47;2067755;28;20029;-70
2021/04/11 04:43:56;;;;;;;14.30;11.48;;;;;;;18.00;50.87;99082.13;2062451;28;20588;-70
2021/04/11 04:45:17;;;;;;;14.63;11.43;;;;;;;18.02;51.05;99078.41;2052664;28;20092;-70
2021/04/11 04:46:42;;;;;;;17.15;11.93;;;;;;;18.03;50.94;99080.09;2070267;28;20053;-70
2021/04/11 04:47:50;;;;;;;13.98;11.65;;;;;;;18.02;51.00;99092.03;2067104;28;20021;-70
2021/04/11 04:48:58;;;;;;;16.40;11.82;;;;;;;18.03;50.89;99088.28;2069931;28;20033;-70
2021/04/11 04:50:10;;;;;;;15.70;12.35;;;;;;;18.04;50.93;99090.84;2065959;28;20029;-70
2021/04/11 04:51:16;;;;;;;13.52;10.90;;;;;;;18.04;50.94;99090.00;2063484;28;20506;-70
2021/04/11 04:52:25;;;;;;;14.10;11.32;;;;;;;18.05;50.71;99086.25;2066329;28;20033;-70
2021/04/11 04:53:36;;;;;;;13.85;10.80;;;;;;;18.05;50.79;99087.09;2062985;28;20455;-70
2021/04/11 04:54:48;;;;;;;15.25;11.80;;;;;;;18.03;50.95;99088.28;2067348;28;20488;-70
2021/04/11 04:55:50;;;;;;;;;;;;;;;18.00;51.13;99090.31;2070998;28;20037;-71
2021/04/11 04:57:10;;;;;;;14.43;11.60;;;;;;;18.00;50.95;99095.78;2070985;28;20000;-70
2021/04/11 04:58:18;;;;;;;15.00;11.60;;;;;;;18.03;50.83;99093.75;2070141;28;20507;-70
2021/04/11 04:59:23;;;;;;;14.50;10.90;;;;;;;18.04;50.86;99098.19;2069950;28;20065;-70
2021/04/11 05:00:37;;;;;;;14.95;10.90;;;;;;;18.05;50.83;99095.28;2069414;28;20121;-70
2021/04/11 05:01:44;;;;;;;13.60;10.85;;;;;;;18.06;50.83;99096.16;2069422;28;20444;-70
2021/04/11 05:02:52;;;;;;;13.15;10.75;;;;;;;18.05;50.92;99095.28;2066967;28;20037;-70
2021/04/11 05:04:01;;;;;;;14.00;11.23;;;;;;;18.05;50.79;99097.16;2070479;28;20025;-70
2021/04/11 05:05:06;;;;;;;12.43;10.73;;;;;;;18.07;50.71;99095.13;2069348;28;20522;-70
2021/04/11 05:06:21;;;;;;;12.52;10.38;;;;;;;18.05;50.64;99097.16;2067535;28;20057;-71